sensor_id;sensor_type;location;lat;lon;timestamp;pressure;altitude;pressure_sealevel;temperature
75658;BMP280;64255;49.892;17.884;2023-05-07T05:02:33;99085.09;;;9.54
75658;BMP280;64255;49.892;17.884;2023-05-07T05:05:19;99099.19;;;9.55
75658;BMP280;64255;49.892;17.884;2023-05-07T05:08:06;99095.03;;;9.63
75658;BMP280;64255;49.892;17.884;2023-05-07T05:10:52;99090.59;;;9.60
75658;BMP280;64255;49.892;17.884;2023-05-07T05:13:39;99106.50;;;9.73
75658;BMP280;64255;49.892;17.884;2023-05-07T05:16:25;99094.28;;;9.53
75658;BMP280;64255;49.892;17.884;2023-05-07T05:19:12;99109.28;;;9.60
75658;BMP280;64255;49.892;17.884;2023-05-07T05:21:58;99108.03;;;9.43
75658;BMP280;64255;49.892;17.884;2023-05-07T05:24:45;99108.84;;;9.62
75658;BMP280;64255;49.892;17.884;2023-05-07T05:27:32;99108.06;;;9.52
75658;BMP280;64255;49.892;17.884;2023-05-07T05:30:18;99111.66;;;9.58
75658;BMP280;64255;49.892;17.884;2023-05-07T05:33:04;99114.03;;;9.65
75658;BMP280;64255;49.892;17.884;2023-05-07T05:35:51;99120.06;;;9.47
75658;BMP280;64255;49.892;17.884;2023-05-07T05:38:37;99117.25;;;9.51
75658;BMP280;64255;49.892;17.884;2023-05-07T05:41:24;99121.75;;;9.54
75658;BMP280;64255;49.892;17.884;2023-05-07T05:44:10;99117.31;;;9.60
75658;BMP280;64255;49.892;17.884;2023-05-07T05:46:57;99121.72;;;9.45
75658;BMP280;64255;49.892;17.884;2023-05-07T05:49:43;99121.16;;;9.59
75658;BMP280;64255;49.892;17.884;2023-05-07T05:52:30;99128.63;;;9.74
75658;BMP280;64255;49.892;17.884;2023-05-07T05:55:16;99126.41;;;9.72
75658;BMP280;64255;49.892;17.884;2023-05-07T05:58:03;99128.28;;;9.53
75658;BMP280;64255;49.892;17.884;2023-05-07T06:00:50;99128.00;;;9.60
75658;BMP280;64255;49.892;17.884;2023-05-07T06:03:36;99132.72;;;9.56
75658;BMP280;64255;49.892;17.884;2023-05-07T06:06:23;99131.69;;;9.22
75658;BMP280;64255;49.892;17.884;2023-05-07T06:09:09;99134.69;;;9.24
75658;BMP280;64255;49.892;17.884;2023-05-07T06:11:56;99140.22;;;8.85
75658;BMP280;64255;49.892;17.884;2023-05-07T06:14:45;99136.50;;;8.83
75658;BMP280;64255;49.892;17.884;2023-05-07T06:17:31;99137.94;;;8.62
75658;BMP280;64255;49.892;17.884;2023-05-07T06:20:18;99142.94;;;8.72
75658;BMP280;64255;49.892;17.884;2023-05-07T06:23:04;99138.00;;;9.06
75658;BMP280;64255;49.892;17.884;2023-05-07T06:25:51;99146.66;;;9.19
75658;BMP280;64255;49.892;17.884;2023-05-07T06:28:38;99150.66;;;9.15
75658;BMP280;64255;49.892;17.884;2023-05-07T06:31:30;99149.84;;;8.83
75658;BMP280;64255;49.892;17.884;2023-05-07T06:34:17;99151.47;;;8.45
75658;BMP280;64255;49.892;17.884;2023-05-07T06:37:03;99150.69;;;8.57
75658;BMP280;64255;49.892;17.884;2023-05-07T06:39:50;99157.22;;;8.56
75658;BMP280;64255;49.892;17.884;2023-05-07T06:42:37;99165.16;;;8.69
75658;BMP280;64255;49.892;17.884;2023-05-07T06:45:23;99164.31;;;8.24
75658;BMP280;64255;49.892;17.884;2023-05-07T06:48:10;99169.88;;;8.04
75658;BMP280;64255;49.892;17.884;2023-05-07T06:50:56;99171.34;;;8.18
75658;BMP280;64255;49.892;17.884;2023-05-07T06:53:43;99173.47;;;8.36
75658;BMP280;64255;49.892;17.884;2023-05-07T06:56:30;99182.19;;;8.50
75658;BMP280;64255;49.892;17.884;2023-05-07T06:59:16;99180.84;;;8.32
75658;BMP280;64255;49.892;17.884;2023-05-07T07:02:03;99188.31;;;8.24
75658;BMP280;64255;49.892;17.884;2023-05-07T07:04:49;99183.28;;;8.39
75658;BMP280;64255;49.892;17.884;2023-05-07T07:07:36;99196.22;;;8.76
75658;BMP280;64255;49.892;17.884;2023-05-07T07:10:23;99189.50;;;8.71
75658;BMP280;64255;49.892;17.884;2023-05-07T07:13:09;99195.13;;;8.38
75658;BMP280;64255;49.892;17.884;2023-05-07T07:15:56;99192.69;;;8.44
75658;BMP280;64255;49.892;17.884;2023-05-07T07:18:42;99195.38;;;8.66
75658;BMP280;64255;49.892;17.884;2023-05-07T07:21:29;99202.50;;;8.82
75658;BMP280;64255;49.892;17.884;2023-05-07T07:24:15;99197.13;;;8.60
75658;BMP280;64255;49.892;17.884;2023-05-07T07:27:02;99203.25;;;8.22
75658;BMP280;64255;49.892;17.884;2023-05-07T07:29:48;99209.44;;;8.32
75658;BMP280;64255;49.892;17.884;2023-05-07T07:32:35;99218.28;;;8.54
75658;BMP280;64255;49.892;17.884;2023-05-07T07:35:21;99217.63;;;8.63
75658;BMP280;64255;49.892;17.884;2023-05-07T07:38:08;99216.91;;;8.85
75658;BMP280;64255;49.892;17.884;2023-05-07T07:40:54;99216.97;;;8.59
75658;BMP280;64255;49.892;17.884;2023-05-07T07:43:41;99218.94;;;8.46
75658;BMP280;64255;49.892;17.884;2023-05-07T07:46:27;99227.69;;;8.33
75658;BMP280;64255;49.892;17.884;2023-05-07T07:49:14;99230.66;;;8.35
75658;BMP280;64255;49.892;17.884;2023-05-07T07:52:01;99229.09;;;8.73
75658;BMP280;64255;49.892;17.884;2023-05-07T07:54:47;99231.69;;;8.77
75658;BMP280;64255;49.892;17.884;2023-05-07T07:57:34;99231.28;;;8.52
75658;BMP280;64255;49.892;17.884;2023-05-07T08:00:20;99237.28;;;8.18
75658;BMP280;64255;49.892;17.884;2023-05-07T08:03:10;99237.09;;;7.99
75658;BMP280;64255;49.892;17.884;2023-05-07T08:05:56;99244.13;;;8.19
75658;BMP280;64255;49.892;17.884;2023-05-07T08:08:43;99241.34;;;8.10
75658;BMP280;64255;49.892;17.884;2023-05-07T08:11:29;99241.34;;;8.35
75658;BMP280;64255;49.892;17.884;2023-05-07T08:14:17;99240.81;;;8.15
75658;BMP280;64255;49.892;17.884;2023-05-07T08:17:03;99242.41;;;8.38
75658;BMP280;64255;49.892;17.884;2023-05-07T08:19:50;99252.31;;;8.63
75658;BMP280;64255;49.892;17.884;2023-05-07T08:22:36;99265.13;;;8.43
75658;BMP280;64255;49.892;17.884;2023-05-07T08:25:23;99263.53;;;8.32
75658;BMP280;64255;49.892;17.884;2023-05-07T08:28:09;99264.09;;;8.27
75658;BMP280;64255;49.892;17.884;2023-05-07T08:30:56;99267.81;;;8.43
75658;BMP280;64255;49.892;17.884;2023-05-07T08:33:42;99270.06;;;8.44
75658;BMP280;64255;49.892;17.884;2023-05-07T08:36:29;99265.34;;;8.48
75658;BMP280;64255;49.892;17.884;2023-05-07T08:39:16;99271.09;;;8.60
75658;BMP280;64255;49.892;17.884;2023-05-07T08:42:04;99278.28;;;8.50
75658;BMP280;64255;49.892;17.884;2023-05-07T08:44:51;99273.25;;;8.65
75658;BMP280;64255;49.892;17.884;2023-05-07T08:47:47;99274.31;;;8.54
75658;BMP280;64255;49.892;17.884;2023-05-07T08:50:37;99286.59;;;8.52
75658;BMP280;64255;49.892;17.884;2023-05-07T08:53:24;99282.84;;;8.49
75658;BMP280;64255;49.892;17.884;2023-05-07T08:56:12;99287.13;;;8.47
75658;BMP280;64255;49.892;17.884;2023-05-07T08:58:59;99284.88;;;8.58
75658;BMP280;64255;49.892;17.884;2023-05-07T09:01:46;99285.94;;;8.48
75658;BMP280;64255;49.892;17.884;2023-05-07T09:04:33;99284.94;;;8.67
75658;BMP280;64255;49.892;17.884;2023-05-07T09:07:20;99291.59;;;8.63
75658;BMP280;64255;49.892;17.884;2023-05-07T09:10:07;99288.50;;;8.77
75658;BMP280;64255;49.892;17.884;2023-05-07T09:12:54;99288.66;;;8.35
75658;BMP280;64255;49.892;17.884;2023-05-07T09:15:41;99289.69;;;8.50
75658;BMP280;64255;49.892;17.884;2023-05-07T09:18:27;99291.50;;;8.53
75658;BMP280;64255;49.892;17.884;2023-05-07T09:21:19;99298.00;;;8.65
75658;BMP280;64255;49.892;17.884;2023-05-07T09:24:05;99298.84;;;8.75
75658;BMP280;64255;49.892;17.884;2023-05-07T09:26:52;99299.63;;;8.76
75658;BMP280;64255;49.892;17.884;2023-05-07T09:29:38;99309.31;;;8.69
75658;BMP280;64255;49.892;17.884;2023-05-07T09:32:25;99309.44;;;8.66
75658;BMP280;64255;49.892;17.884;2023-05-07T09:35:16;99299.88;;;8.90
75658;BMP280;64255;49.892;17.884;2023-05-07T09:38:02;99312.97;;;8.76
75658;BMP280;64255;49.892;17.884;2023-05-07T09:41:07;99312.19;;;8.88
75658;BMP280;64255;49.892;17.884;2023-05-07T09:43:55;99314.03;;;9.13
75658;BMP280;64255;49.892;17.884;2023-05-07T09:46:43;99310.59;;;9.26
75658;BMP280;64255;49.892;17.884;2023-05-07T09:49:39;99319.84;;;9.34
75658;BMP280;64255;49.892;17.884;2023-05-07T09:52:27;99316.66;;;9.26
75658;BMP280;64255;49.892;17.884;2023-05-07T09:55:15;99317.72;;;8.94
75658;BMP280;64255;49.892;17.884;2023-05-07T09:58:05;99325.91;;;9.12
75658;BMP280;64255;49.892;17.884;2023-05-07T10:00:53;99321.06;;;8.72
75658;BMP280;64255;49.892;17.884;2023-05-07T10:03:41;99323.84;;;8.43
75658;BMP280;64255;49.892;17.884;2023-05-07T10:06:29;99332.91;;;8.58
75658;BMP280;64255;49.892;17.884;2023-05-07T10:09:16;99332.66;;;8.91
75658;BMP280;64255;49.892;17.884;2023-05-07T10:12:05;99334.41;;;8.59
75658;BMP280;64255;49.892;17.884;2023-05-07T10:14:53;99331.00;;;8.71
75658;BMP280;64255;49.892;17.884;2023-05-07T10:17:41;99332.75;;;9.13
75658;BMP280;64255;49.892;17.884;2023-05-07T10:20:28;99334.63;;;9.26
75658;BMP280;64255;49.892;17.884;2023-05-07T10:23:23;99336.28;;;9.45
75658;BMP280;64255;49.892;17.884;2023-05-07T10:26:10;99340.63;;;9.52
75658;BMP280;64255;49.892;17.884;2023-05-07T10:32:53;99335.25;;;9.30
75658;BMP280;64255;49.892;17.884;2023-05-07T10:35:45;99327.97;;;8.95
75658;BMP280;64255;49.892;17.884;2023-05-07T10:38:33;99331.84;;;8.81
75658;BMP280;64255;49.892;17.884;2023-05-07T10:41:20;99331.69;;;9.11
75658;BMP280;64255;49.892;17.884;2023-05-07T10:44:06;99328.19;;;9.58
75658;BMP280;64255;49.892;17.884;2023-05-07T10:47:17;99339.00;;;9.99
75658;BMP280;64255;49.892;17.884;2023-05-07T11:02:08;99335.84;;;9.12
75658;BMP280;64255;49.892;17.884;2023-05-07T11:05:23;99342.69;;;9.48
75658;BMP280;64255;49.892;17.884;2023-05-07T11:08:10;99352.06;;;9.75
75658;BMP280;64255;49.892;17.884;2023-05-07T11:10:57;99355.72;;;9.68
75658;BMP280;64255;49.892;17.884;2023-05-07T11:13:48;99351.31;;;9.74
75658;BMP280;64255;49.892;17.884;2023-05-07T11:16:36;99364.69;;;9.52
75658;BMP280;64255;49.892;17.884;2023-05-07T11:19:52;99361.16;;;9.77
75658;BMP280;64255;49.892;17.884;2023-05-07T11:22:39;99357.53;;;9.27
75658;BMP280;64255;49.892;17.884;2023-05-07T11:25:25;99352.69;;;9.34
75658;BMP280;64255;49.892;17.884;2023-05-07T11:28:12;99360.16;;;9.62
75658;BMP280;64255;49.892;17.884;2023-05-07T11:31:00;99358.31;;;9.71
75658;BMP280;64255;49.892;17.884;2023-05-07T11:33:47;99370.16;;;9.48
75658;BMP280;64255;49.892;17.884;2023-05-07T11:36:33;99368.84;;;9.53
75658;BMP280;64255;49.892;17.884;2023-05-07T11:39:31;99371.59;;;9.62
75658;BMP280;64255;49.892;17.884;2023-05-07T11:42:35;99377.47;;;9.92
75658;BMP280;64255;49.892;17.884;2023-05-07T11:45:25;99379.78;;;10.12
75658;BMP280;64255;49.892;17.884;2023-05-07T11:48:13;99386.28;;;10.02
75658;BMP280;64255;49.892;17.884;2023-05-07T11:51:01;99384.50;;;10.30
75658;BMP280;64255;49.892;17.884;2023-05-07T11:53:48;99378.44;;;10.08
75658;BMP280;64255;49.892;17.884;2023-05-07T11:56:35;99382.72;;;10.27
75658;BMP280;64255;49.892;17.884;2023-05-07T11:59:21;99381.03;;;9.98
75658;BMP280;64255;49.892;17.884;2023-05-07T12:02:08;99391.28;;;9.91
75658;BMP280;64255;49.892;17.884;2023-05-07T12:04:55;99380.25;;;9.88
75658;BMP280;64255;49.892;17.884;2023-05-07T12:07:41;99383.44;;;9.96
75658;BMP280;64255;49.892;17.884;2023-05-07T12:10:28;99391.28;;;9.91
75658;BMP280;64255;49.892;17.884;2023-05-07T12:13:20;99383.75;;;9.06
75658;BMP280;64255;49.892;17.884;2023-05-07T12:16:07;99386.50;;;9.15
75658;BMP280;64255;49.892;17.884;2023-05-07T12:18:54;99388.31;;;9.18
75658;BMP280;64255;49.892;17.884;2023-05-07T12:21:41;99387.16;;;8.94
75658;BMP280;64255;49.892;17.884;2023-05-07T12:24:28;99399.09;;;9.15
75658;BMP280;64255;49.892;17.884;2023-05-07T12:27:16;99395.69;;;9.01
75658;BMP280;64255;49.892;17.884;2023-05-07T12:30:03;99401.91;;;8.98
75658;BMP280;64255;49.892;17.884;2023-05-07T12:32:53;99403.47;;;9.21
75658;BMP280;64255;49.892;17.884;2023-05-07T12:35:42;99399.31;;;9.07
75658;BMP280;64255;49.892;17.884;2023-05-07T12:38:36;99407.31;;;9.20
75658;BMP280;64255;49.892;17.884;2023-05-07T12:41:23;99407.81;;;9.41
75658;BMP280;64255;49.892;17.884;2023-05-07T12:44:09;99409.63;;;9.44
75658;BMP280;64255;49.892;17.884;2023-05-07T12:46:56;99399.09;;;9.15
75658;BMP280;64255;49.892;17.884;2023-05-07T12:49:43;99406.16;;;8.96
75658;BMP280;64255;49.892;17.884;2023-05-07T12:52:30;99404.47;;;8.89
75658;BMP280;64255;49.892;17.884;2023-05-07T12:55:17;99414.28;;;8.79
75658;BMP280;64255;49.892;17.884;2023-05-07T12:58:04;99405.88;;;8.94
75658;BMP280;64255;49.892;17.884;2023-05-07T13:00:51;99402.53;;;9.15
75658;BMP280;64255;49.892;17.884;2023-05-07T13:03:38;99398.53;;;9.33
75658;BMP280;64255;49.892;17.884;2023-05-07T13:06:25;99415.34;;;8.82
75658;BMP280;64255;49.892;17.884;2023-05-07T13:09:11;99411.09;;;8.59
75658;BMP280;64255;49.892;17.884;2023-05-07T13:11:58;99409.91;;;8.85
75658;BMP280;64255;49.892;17.884;2023-05-07T13:14:44;99414.19;;;8.83
75658;BMP280;64255;49.892;17.884;2023-05-07T13:17:31;99408.22;;;8.66
75658;BMP280;64255;49.892;17.884;2023-05-07T13:20:17;99408.41;;;8.59
75658;BMP280;64255;49.892;17.884;2023-05-07T13:23:04;99404.47;;;8.63
75658;BMP280;64255;49.892;17.884;2023-05-07T13:25:50;99410.34;;;8.71
75658;BMP280;64255;49.892;17.884;2023-05-07T13:28:37;99402.88;;;8.53
75658;BMP280;64255;49.892;17.884;2023-05-07T13:31:24;99403.66;;;8.37
75658;BMP280;64255;49.892;17.884;2023-05-07T13:34:11;99404.44;;;8.37
75658;BMP280;64255;49.892;17.884;2023-05-07T13:36:57;99412.53;;;8.47
75658;BMP280;64255;49.892;17.884;2023-05-07T13:39:43;99410.03;;;8.69
75658;BMP280;64255;49.892;17.884;2023-05-07T13:42:30;99411.81;;;8.59
75658;BMP280;64255;49.892;17.884;2023-05-07T13:45:18;99413.94;;;8.38
75658;BMP280;64255;49.892;17.884;2023-05-07T13:48:05;99418.81;;;8.27
75658;BMP280;64255;49.892;17.884;2023-05-07T13:50:51;99417.75;;;8.24
75658;BMP280;64255;49.892;17.884;2023-05-07T13:53:38;99428.84;;;8.36
75658;BMP280;64255;49.892;17.884;2023-05-07T13:56:25;99423.00;;;8.28
75658;BMP280;64255;49.892;17.884;2023-05-07T13:59:11;99427.00;;;8.62
75658;BMP280;64255;49.892;17.884;2023-05-07T14:01:57;99425.31;;;8.26
75658;BMP280;64255;49.892;17.884;2023-05-07T14:04:44;99425.09;;;8.20
75658;BMP280;64255;49.892;17.884;2023-05-07T14:07:30;99423.00;;;8.28
75658;BMP280;64255;49.892;17.884;2023-05-07T14:10:18;99429.06;;;8.29
75658;BMP280;64255;49.892;17.884;2023-05-07T14:13:05;99436.47;;;8.08
75658;BMP280;64255;49.892;17.884;2023-05-07T14:15:51;99431.16;;;8.08
75658;BMP280;64255;49.892;17.884;2023-05-07T14:18:38;99435.59;;;7.98
75658;BMP280;64255;49.892;17.884;2023-05-07T14:21:24;99438.13;;;7.89
75658;BMP280;64255;49.892;17.884;2023-05-07T14:24:10;99438.69;;;7.97
75658;BMP280;64255;49.892;17.884;2023-05-07T14:26:57;99448.22;;;8.11
75658;BMP280;64255;49.892;17.884;2023-05-07T14:29:43;99453.91;;;7.96
75658;BMP280;64255;49.892;17.884;2023-05-07T14:32:31;99448.19;;;7.98
75658;BMP280;64255;49.892;17.884;2023-05-07T14:35:18;99451.66;;;7.95
75658;BMP280;64255;49.892;17.884;2023-05-07T14:38:05;99452.00;;;7.97
75658;BMP280;64255;49.892;17.884;2023-05-07T14:40:51;99448.78;;;7.89
75658;BMP280;64255;49.892;17.884;2023-05-07T14:43:37;99452.84;;;7.94
75658;BMP280;64255;49.892;17.884;2023-05-07T14:46:24;99455.94;;;7.92
75658;BMP280;64255;49.892;17.884;2023-05-07T14:49:10;99456.34;;;7.90
75658;BMP280;64255;49.892;17.884;2023-05-07T14:51:58;99449.50;;;7.89
75658;BMP280;64255;49.892;17.884;2023-05-07T14:54:44;99444.41;;;7.95
75658;BMP280;64255;49.892;17.884;2023-05-07T14:57:31;99451.78;;;7.91
75658;BMP280;64255;49.892;17.884;2023-05-07T15:00:18;99450.50;;;7.96
75658;BMP280;64255;49.892;17.884;2023-05-07T15:03:09;99445.81;;;8.00
75658;BMP280;64255;49.892;17.884;2023-05-07T15:05:56;99453.50;;;7.98
75658;BMP280;64255;49.892;17.884;2023-05-07T15:08:42;99461.19;;;7.96
75658;BMP280;64255;49.892;17.884;2023-05-07T15:11:29;99455.75;;;7.99
75658;BMP280;64255;49.892;17.884;2023-05-07T15:14:15;99468.56;;;8.04
75658;BMP280;64255;49.892;17.884;2023-05-07T15:17:02;99466.91;;;8.11
75658;BMP280;64255;49.892;17.884;2023-05-07T15:19:48;99467.97;;;8.13
75658;BMP280;64255;49.892;17.884;2023-05-07T15:22:36;99466.91;;;8.11
75658;BMP280;64255;49.892;17.884;2023-05-07T15:25:23;99468.41;;;8.12
75658;BMP280;64255;49.892;17.884;2023-05-07T15:28:09;99463.25;;;8.04
75658;BMP280;64255;49.892;17.884;2023-05-07T15:30:56;99464.72;;;8.05
75658;BMP280;64255;49.892;17.884;2023-05-07T15:33:43;99473.59;;;8.02
75658;BMP280;64255;49.892;17.884;2023-05-07T15:36:29;99473.06;;;8.07
75658;BMP280;64255;49.892;17.884;2023-05-07T15:39:16;99470.94;;;8.02
75658;BMP280;64255;49.892;17.884;2023-05-07T15:42:02;99471.56;;;8.06
75658;BMP280;64255;49.892;17.884;2023-05-07T15:44:49;99473.47;;;8.06
75658;BMP280;64255;49.892;17.884;2023-05-07T15:47:35;99472.09;;;8.01
75658;BMP280;64255;49.892;17.884;2023-05-07T15:50:22;99475.63;;;8.11
75658;BMP280;64255;49.892;17.884;2023-05-07T15:53:08;99478.16;;;8.02
75658;BMP280;64255;49.892;17.884;2023-05-07T15:55:55;99480.09;;;8.01
75658;BMP280;64255;49.892;17.884;2023-05-07T15:58:41;99475.06;;;8.03
75658;BMP280;64255;49.892;17.884;2023-05-07T16:01:28;99472.31;;;8.07
75658;BMP280;64255;49.892;17.884;2023-05-07T16:04:17;99466.97;;;8.07
75658;BMP280;64255;49.892;17.884;2023-05-07T16:07:04;99468.47;;;8.08
75658;BMP280;64255;49.892;17.884;2023-05-07T16:09:50;99465.59;;;8.02
75658;BMP280;64255;49.892;17.884;2023-05-07T16:12:37;99467.06;;;8.03
75658;BMP280;64255;49.892;17.884;2023-05-07T16:15:23;99470.81;;;8.06
75658;BMP280;64255;49.892;17.884;2023-05-07T16:18:11;99470.16;;;8.02
75658;BMP280;64255;49.892;17.884;2023-05-07T16:20:57;99467.94;;;8.00
75658;BMP280;64255;49.892;17.884;2023-05-07T16:23:44;99472.84;;;8.02
75658;BMP280;64255;49.892;17.884;2023-05-07T16:26:31;99476.75;;;7.97
75658;BMP280;64255;49.892;17.884;2023-05-07T16:29:17;99472.66;;;7.92
75658;BMP280;64255;49.892;17.884;2023-05-07T16:32:04;99470.00;;;7.92
75658;BMP280;64255;49.892;17.884;2023-05-07T16:34:51;99464.25;;;7.94
75658;BMP280;64255;49.892;17.884;2023-05-07T16:37:40;99463.06;;;7.95
75658;BMP280;64255;49.892;17.884;2023-05-07T16:40:26;99470.75;;;7.93
75658;BMP280;64255;49.892;17.884;2023-05-07T16:43:13;99459.31;;;7.92
75658;BMP280;64255;49.892;17.884;2023-05-07T16:45:59;99455.63;;;7.90
75658;BMP280;64255;49.892;17.884;2023-05-07T16:48:46;99459.84;;;7.87
75658;BMP280;64255;49.892;17.884;2023-05-07T16:51:33;99470.84;;;7.89
75658;BMP280;64255;49.892;17.884;2023-05-07T16:54:19;99469.44;;;7.85
75658;BMP280;64255;49.892;17.884;2023-05-07T16:57:06;99468.34;;;7.82
75658;BMP280;64255;49.892;17.884;2023-05-07T16:59:54;99472.88;;;7.85
